Time;durP1;ratioP1;P1;durP2;ratioP2;P2;SDS_P1;SDS_P2;PMS_P1;PMS_P2;Temp;Humidity;BMP_temperature;BMP_pressure;BME280_temperature;BME280_humidity;BME280_pressure;Samples;Min_cycle;Max_cycle;Signal;HPM_P1;HPM_P2
2021/03/17 00:00:29;;;;;;;;;;;;;;;19.91;47.27;101510.63;2090130;28;1726;-73
2021/03/17 00:01:30;;;;;;;;;;;;;;;19.91;47.30;101507.78;2094778;28;1132;-73
2021/03/17 00:02:30;;;;;;;;;;;;;;;19.93;47.34;101513.94;2092428;28;1691;-73
2021/03/17 00:03:31;;;;;;;;;;;;;;;19.91;47.31;101511.47;2090364;28;1643;-73
2021/03/17 00:04:32;;;;;;;;;;;;;;;19.91;47.29;101511.47;2089866;28;2071;-74
2021/03/17 00:05:33;;;;;;;;;;;;;;;19.91;47.25;101514.28;2089999;28;1276;-73
2021/03/17 00:06:34;;;;;;;;;;;;;;;19.91;47.33;101505.78;2083027;28;2292;-73
2021/03/17 00:07:35;;;;;;;;;;;;;;;19.91;47.35;101502.94;2089801;28;1151;-72
2021/03/17 00:08:35;;;;;;;;;;;;;;;19.92;47.38;101507.44;2082142;28;1688;-72
2021/03/17 00:09:36;;;;;;;;;;;;;;;19.93;47.30;101509.13;2089635;28;1104;-72
2021/03/17 00:10:37;;;;;;;;;;;;;;;19.93;47.32;101508.25;2089929;28;1416;-73
2021/03/17 00:11:38;;;;;;;;;;;;;;;19.92;47.43;101504.59;2089333;28;1727;-73
2021/03/17 00:12:38;;;;;;;;;;;;;;;19.93;47.44;101509.13;2088361;28;1690;-72
2021/03/17 00:13:39;;;;;;;;;;;;;;;19.92;47.45;101513.13;2089470;28;1906;-72
2021/03/17 00:14:40;;;;;;;;;;;;;;;19.93;47.43;101509.13;2090186;28;2052;-72
2021/03/17 00:15:42;;;;;;;;;;;;;;;19.93;47.45;101509.13;2089454;28;1676;-72
2021/03/17 00:16:43;;;;;;;;;;;;;;;19.93;47.36;101514.81;2090011;28;1088;-72
2021/03/17 00:17:44;;;;;;;;;;;;;;;19.93;47.48;101506.28;2083805;28;1071;-71
2021/03/17 00:18:45;;;;;;;;;;;;;;;19.93;47.44;101505.44;2089814;28;1754;-72
2021/03/17 00:19:47;;;;;;;;;;;;;;;19.93;47.53;101508.25;2090123;28;1075;-71
2021/03/17 00:20:48;;;;;;;;;;;;;;;19.93;47.56;101506.28;2085917;28;1083;-71
2021/03/17 00:21:48;;;;;;;;;;;;;;;19.95;47.60;101508.78;2090282;28;1480;-71
2021/03/17 00:22:50;;;;;;;;;;;;;;;19.94;47.59;101504.28;2089509;28;1742;-72
2021/03/17 00:23:51;;;;;;;;;;;;;;;19.95;47.62;101509.63;2089836;28;1608;-72
2021/03/17 00:24:51;;;;;;;;;;;;;;;19.94;47.59;101505.13;2088081;28;1156;-72
2021/03/17 00:25:52;;;;;;;;;;;;;;;19.95;47.62;101508.78;2089313;28;1737;-71
2021/03/17 00:26:53;;;;;;;;;;;;;;;19.95;47.46;101505.94;2091994;28;2119;-71
2021/03/17 00:27:54;;;;;;;;;;;;;;;19.95;47.52;101508.78;2090436;28;1919;-71
2021/03/17 00:28:54;;;;;;;;;;;;;;;19.95;47.45;101508.78;2087154;28;1693;-71
2021/03/17 00:29:55;;;;;;;;;;;;;;;19.96;47.49;101514.16;2083418;28;1739;-72
2021/03/17 00:30:56;;;;;;;;;;;;;;;19.95;47.63;101508.78;2090394;28;1036;-72
2021/03/17 00:31:57;;;;;;;;;;;;;;;19.96;47.48;101508.47;2089898;28;1686;-73
2021/03/17 00:32:59;;;;;;;;;;;;;;;19.95;47.64;101501.09;2089053;28;1291;-71
2021/03/17 00:34:00;;;;;;;;;;;;;;;19.95;47.51;101503.94;2084318;28;1914;-72
2021/03/17 00:35:01;;;;;;;;;;;;;;;19.97;47.58;101503.63;2082219;28;1103;-74
2021/03/17 00:36:02;;;;;;;;;;;;;;;19.96;47.68;101502.78;2078757;28;1128;-72
2021/03/17 00:37:04;;;;;;;;;;;;;;;19.97;47.57;101509.28;2082888;28;1772;-72
2021/03/17 00:38:04;;;;;;;;;;;;;;;19.96;47.63;101505.63;2086137;28;1147;-71
2021/03/17 00:39:05;;;;;;;;;;;;;;;19.97;47.67;101515.81;2078761;28;1665;-74
2021/03/17 00:40:06;;;;;;;;;;;;;;;19.97;47.77;101510.13;2080443;28;1723;-76
2021/03/17 00:41:07;;;;;;;;;;;;;;;19.97;47.65;101512.97;2081946;28;1109;-73
2021/03/17 00:42:07;;;;;;;;;;;;;;;19.98;47.73;101510.97;2080385;28;1693;-72
2021/03/17 00:43:08;;;;;;;;;;;;;;;19.97;47.76;101510.13;2086433;28;2229;-72
2021/03/17 00:44:09;;;;;;;;;;;;;;;19.96;47.80;101505.63;2086811;28;1665;-73
2021/03/17 00:45:10;;;;;;;;;;;;;;;19.96;47.75;101510.47;2084192;28;1688;-72
2021/03/17 00:46:11;;;;;;;;;;;;;;;19.97;47.73;101512.13;2084871;28;2874;-72
2021/03/17 00:47:12;;;;;;;;;;;;;;;19.97;47.79;101512.13;2082773;28;1724;-72
2021/03/17 00:48:12;;;;;;;;;;;;;;;19.98;47.75;101511.78;2081771;28;1677;-73
2021/03/17 00:49:13;;;;;;;;;;;;;;;19.98;47.82;101506.09;2081803;28;1309;-73
2021/03/17 00:50:14;;;;;;;;;;;;;;;19.98;47.72;101508.94;2079322;28;1681;-73
2021/03/17 00:51:15;;;;;;;;;;;;;;;19.98;47.80;101506.09;2078406;28;2079;-72
2021/03/17 00:52:15;;;;;;;;;;;;;;;19.98;47.87;101505.28;2085388;28;1740;-72
2021/03/17 00:53:16;;;;;;;;;;;;;;;19.98;47.91;101508.13;2084179;28;1973;-72
2021/03/17 00:54:17;;;;;;;;;;;;;;;19.98;47.65;101502.44;2084160;28;1001;-73
2021/03/17 00:55:18;;;;;;;;;;;;;;;19.98;47.87;101502.44;2080975;28;1735;-73
2021/03/17 00:56:19;;;;;;;;;;;;;;;19.98;47.71;101508.94;2081895;28;2107;-72
2021/03/17 00:57:20;;;;;;;;;;;;;;;19.99;47.89;101507.81;2087403;28;1171;-72
2021/03/17 00:58:21;;;;;;;;;;;;;;;20.00;47.94;101509.47;2087956;28;1237;-72
2021/03/17 00:59:21;;;;;;;;;;;;;;;19.99;48.03;101502.13;2083560;28;1748;-72
2021/03/17 01:00:22;;;;;;;;;;;;;;;20.00;47.79;101502.97;2083027;28;1772;-72
2021/03/17 01:01:23;;;;;;;;;;;;;;;19.99;47.84;101501.28;2081142;28;1830;-72
2021/03/17 01:02:24;;;;;;;;;;;;;;;20.00;47.82;101506.63;2083680;28;1573;-71
2021/03/17 01:03:25;;;;;;;;;;;;;;;19.99;47.94;101507.81;2086026;28;1628;-71
2021/03/17 01:04:26;;;;;;;;;;;;;;;19.99;47.88;101499.28;2081924;28;2124;-71
2021/03/17 01:05:27;;;;;;;;;;;;;;;19.99;47.87;101504.97;2084406;28;1108;-71
2021/03/17 01:06:28;;;;;;;;;;;;;;;19.99;48.01;101506.97;2086919;28;2291;-71
2021/03/17 01:07:29;;;;;;;;;;;;;;;20.00;48.01;101502.97;2083670;28;1819;-71
2021/03/17 01:08:29;;;;;;;;;;;;;;;20.00;48.13;101500.94;2089420;28;2135;-71
2021/03/17 01:09:30;;;;;;;;;;;;;;;20.00;48.14;101500.94;2088510;28;1204;-71
2021/03/17 01:10:31;;;;;;;;;;;;;;;20.00;48.15;101506.63;2085567;28;1309;-71
2021/03/17 01:11:32;;;;;;;;;;;;;;;20.01;48.11;101504.63;2083201;28;1265;-72
2021/03/17 01:12:33;;;;;;;;;;;;;;;20.00;48.03;101503.78;2083959;28;1855;-71
2021/03/17 01:13:33;;;;;;;;;;;;;;;20.01;48.03;101504.63;2087823;28;1899;-71
2021/03/17 01:14:34;;;;;;;;;;;;;;;20.01;48.13;101507.47;2085697;28;1036;-71
2021/03/17 01:15:35;;;;;;;;;;;;;;;20.01;48.01;101514.00;2087808;28;1832;-71
2021/03/17 01:16:36;;;;;;;;;;;;;;;20.01;48.13;101510.28;2085911;28;909;-72
2021/03/17 01:17:37;;;;;;;;;;;;;;;20.00;48.04;101511.47;2091128;28;1188;-71
2021/03/17 01:18:38;;;;;;;;;;;;;;;20.00;48.13;101509.47;2078803;28;1717;-71
2021/03/17 01:19:38;;;;;;;;;;;;;;;20.01;47.99;101513.13;2085270;28;1052;-72
2021/03/17 01:20:39;;;;;;;;;;;;;;;20.00;48.10;101512.31;2085951;28;1671;-71
2021/03/17 01:21:40;;;;;;;;;;;;;;;20.01;48.17;101507.47;2082536;28;2293;-70
2021/03/17 01:22:41;;;;;;;;;;;;;;;20.00;48.13;101506.63;2082692;28;1660;-70
2021/03/17 01:23:42;;;;;;;;;;;;;;;20.01;48.17;101514.00;2082652;28;1707;-71
2021/03/17 01:24:43;;;;;;;;;;;;;;;20.01;48.21;101508.31;2085066;28;1060;-71
2021/03/17 01:25:44;;;;;;;;;;;;;;;20.01;48.24;101508.31;2083369;28;1632;-71
2021/03/17 01:26:45;;;;;;;;;;;;;;;20.01;48.26;101510.28;2081957;28;1802;-71
2021/03/17 01:27:46;;;;;;;;;;;;;;;20.01;48.12;101502.63;2082194;28;2092;-71
2021/03/17 01:28:48;;;;;;;;;;;;;;;20.01;48.19;101507.47;2081737;28;2137;-70
2021/03/17 01:29:48;;;;;;;;;;;;;;;20.02;48.22;101506.31;2082719;28;1653;-71
2021/03/17 01:30:49;;;;;;;;;;;;;;;20.02;48.23;101512.81;2082086;28;1834;-73
2021/03/17 01:31:50;;;;;;;;;;;;;;;20.01;48.26;101504.63;2082682;28;1704;-72
2021/03/17 01:32:51;;;;;;;;;;;;;;;20.03;48.54;101511.66;2081491;28;1775;-78
2021/03/17 01:33:52;;;;;;;;;;;;;;;20.03;48.43;101511.66;2088306;28;1908;-74
2021/03/17 01:34:53;;;;;;;;;;;;;;;20.03;48.57;101503.13;2090775;28;1636;-73
2021/03/17 01:35:53;;;;;;;;;;;;;;;20.03;48.43;101511.66;2091427;28;1091;-73
2021/03/17 01:36:55;;;;;;;;;;;;;;;20.03;48.42;101507.97;2090997;28;1651;-73
2021/03/17 01:37:55;;;;;;;;;;;;;;;20.02;48.32;101501.47;2091098;28;2120;-73
2021/03/17 01:38:56;;;;;;;;;;;;;;;20.03;48.42;101502.28;2090708;28;1517;-73
2021/03/17 01:39:57;;;;;;;;;;;;;;;20.03;48.45;101505.13;2091005;28;1746;-73
2021/03/17 01:40:58;;;;;;;;;;;;;;;20.02;48.34;101507.13;2089849;28;1080;-73
2021/03/17 01:41:58;;;;;;;;;;;;;;;20.02;48.48;101509.97;2089099;28;1908;-73
2021/03/17 01:42:59;;;;;;;;;;;;;;;20.02;48.34;101507.13;2090636;28;1196;-73
2021/03/17 01:44:00;;;;;;;;;;;;;;;20.02;48.32;101507.13;2085007;28;1699;-73
2021/03/17 01:45:01;;;;;;;;;;;;;;;20.02;48.31;101504.31;2090670;28;1672;-74
2021/03/17 01:46:01;;;;;;;;;;;;;;;20.02;48.40;101507.13;2090755;28;1659;-74
2021/03/17 01:47:03;;;;;;;;;;;;;;;20.02;48.32;101512.81;2091055;28;1335;-72
2021/03/17 01:48:04;;;;;;;;;;;;;;;20.02;48.36;101509.97;2091081;28;1131;-72
2021/03/17 01:49:05;;;;;;;;;;;;;;;20.03;48.44;101511.66;2090781;28;1603;-73
2021/03/17 01:50:07;;;;;;;;;;;;;;;20.02;48.45;101504.31;2089813;28;1711;-73
2021/03/17 01:51:08;;;;;;;;;;;;;;;20.02;48.36;101509.97;2091184;28;1248;-73
2021/03/17 01:52:09;;;;;;;;;;;;;;;20.02;48.43;101507.13;2090695;28;1658;-73
2021/03/17 01:53:10;;;;;;;;;;;;;;;20.02;48.41;101506.31;2090270;28;1695;-73
2021/03/17 01:54:11;;;;;;;;;;;;;;;20.02;48.40;101518.50;2091163;28;1981;-73
2021/03/17 01:55:11;;;;;;;;;;;;;;;20.02;48.30;101512.00;2090299;28;1687;-73
2021/03/17 01:56:12;;;;;;;;;;;;;;;20.01;48.31;101507.47;2090911;28;2071;-73
2021/03/17 01:57:13;;;;;;;;;;;;;;;20.00;48.29;101515.16;2090340;28;2003;-73
2021/03/17 01:58:14;;;;;;;;;;;;;;;20.01;48.37;101510.28;2090610;28;1695;-73
2021/03/17 01:59:14;;;;;;;;;;;;;;;20.01;48.39;101508.31;2091211;28;1012;-73
2021/03/17 02:00:15;;;;;;;;;;;;;;;20.00;48.33;101515.16;2090717;28;1720;-73
2021/03/17 02:01:16;;;;;;;;;;;;;;;20.01;48.44;101511.16;2091430;28;1086;-73
2021/03/17 02:02:17;;;;;;;;;;;;;;;20.01;48.35;101504.63;2090861;28;1719;-73
2021/03/17 02:03:19;;;;;;;;;;;;;;;20.01;48.33;101502.63;2090543;28;1798;-74
2021/03/17 02:04:20;;;;;;;;;;;;;;;20.01;48.37;101507.47;2091027;28;2021;-73
2021/03/17 02:05:21;;;;;;;;;;;;;;;20.01;48.29;101498.94;2091253;28;1676;-72
2021/03/17 02:06:22;;;;;;;;;;;;;;;20.01;48.30;101501.78;2091072;28;1052;-72
2021/03/17 02:07:23;;;;;;;;;;;;;;;20.01;48.26;101510.28;2090998;28;1615;-72
2021/03/17 02:08:23;;;;;;;;;;;;;;;20.00;48.32;101498.09;2087217;28;1762;-73
2021/03/17 02:09:24;;;;;;;;;;;;;;;20.00;48.33;101503.78;2091152;28;1076;-72
2021/03/17 02:10:25;;;;;;;;;;;;;;;20.00;48.24;101502.97;2091358;28;1055;-72
2021/03/17 02:11:26;;;;;;;;;;;;;;;20.01;48.22;101501.78;2090992;28;1191;-72
2021/03/17 02:12:30;;;;;;;;;;;;;;;20.00;48.30;101497.28;2090115;28;1687;-73
2021/03/17 02:13:31;;;;;;;;;;;;;;;20.00;48.43;101500.13;2089075;28;1918;-72
2021/03/17 02:14:32;;;;;;;;;;;;;;;19.98;48.26;101497.59;2090309;28;2061;-72
2021/03/17 02:15:33;;;;;;;;;;;;;;;19.99;48.26;101504.97;2085969;28;1763;-72
2021/03/17 02:16:34;;;;;;;;;;;;;;;19.98;48.36;101503.28;2088494;28;1786;-72
2021/03/17 02:17:35;;;;;;;;;;;;;;;19.99;48.44;101501.28;2095138;28;1809;-73
2021/03/17 02:18:36;;;;;;;;;;;;;;;19.99;48.31;101507.81;2091281;28;1762;-73
2021/03/17 02:19:36;;;;;;;;;;;;;;;19.99;48.37;101502.13;2090895;28;1644;-73
2021/03/17 02:20:37;;;;;;;;;;;;;;;20.00;48.30;101502.97;2090206;28;1751;-73
2021/03/17 02:21:38;;;;;;;;;;;;;;;20.00;48.32;101505.78;2091091;28;1221;-73
2021/03/17 02:22:39;;;;;;;;;;;;;;;20.01;48.40;101507.47;2090706;28;1125;-72
2021/03/17 02:23:40;;;;;;;;;;;;;;;20.00;48.30;101509.47;2090241;28;1730;-72
2021/03/17 02:24:40;;;;;;;;;;;;;;;20.00;48.35;101497.28;2090849;28;1110;-73
2021/03/17 02:25:42;;;;;;;;;;;;;;;19.99;48.37;101507.81;2090055;28;1773;-73
2021/03/17 02:26:43;;;;;;;;;;;;;;;19.99;48.19;101510.66;2088246;28;1573;-73
2021/03/17 02:27:44;;;;;;;;;;;;;;;20.01;48.24;101507.47;2086191;28;1687;-72
2021/03/17 02:28:45;;;;;;;;;;;;;;;20.01;48.38;101510.28;2086936;28;1123;-72
2021/03/17 02:29:47;;;;;;;;;;;;;;;20.01;48.41;101504.63;2088195;28;1724;-73
2021/03/17 02:30:48;;;;;;;;;;;;;;;20.02;48.42;101506.31;2088158;28;1060;-73
2021/03/17 02:31:49;;;;;;;;;;;;;;;20.02;48.36;101509.16;2089666;28;1723;-72
2021/03/17 02:32:50;;;;;;;;;;;;;;;20.01;48.40;101505.47;2089428;28;1787;-73
2021/03/17 02:33:51;;;;;;;;;;;;;;;20.02;48.46;101509.16;2091807;28;1979;-73
2021/03/17 02:34:52;;;;;;;;;;;;;;;20.02;48.44;101501.47;2092131;28;1099;-73
2021/03/17 02:35:53;;;;;;;;;;;;;;;20.01;48.37;101511.16;2090637;28;1669;-73
2021/03/17 02:36:54;;;;;;;;;;;;;;;20.02;48.29;101512.81;2090134;28;1785;-73
2021/03/17 02:37:55;;;;;;;;;;;;;;;20.02;48.33;101514.84;2091362;28;1957;-73
2021/03/17 02:38:55;;;;;;;;;;;;;;;20.02;48.51;101512.00;2091569;28;1131;-73
2021/03/17 02:39:56;;;;;;;;;;;;;;;20.02;48.40;101514.84;2090251;28;1775;-74
2021/03/17 02:40:57;;;;;;;;;;;;;;;20.01;48.44;101516.84;2090532;28;1036;-73
2021/03/17 02:41:58;;;;;;;;;;;;;;;20.01;48.43;101515.97;2089008;28;1846;-73
2021/03/17 02:42:59;;;;;;;;;;;;;;;20.01;48.38;101508.31;2090728;28;1139;-73
2021/03/17 02:44:01;;;;;;;;;;;;;;;20.01;48.47;101513.13;2091621;28;1107;-73
2021/03/17 02:45:02;;;;;;;;;;;;;;;20.01;48.42;101511.16;2092834;28;1730;-73
2021/03/17 02:46:03;;;;;;;;;;;;;;;20.01;48.39;101504.63;2089970;28;1779;-73
2021/03/17 02:47:05;;;;;;;;;;;;;;;20.01;48.41;101516.84;2090989;28;1228;-73
2021/03/17 02:48:06;;;;;;;;;;;;;;;20.01;48.45;101508.31;2093282;28;1102;-72
2021/03/17 02:49:07;;;;;;;;;;;;;;;20.00;48.47;101503.78;2089456;28;1707;-73
2021/03/17 02:50:08;;;;;;;;;;;;;;;20.00;48.38;101512.31;2090277;28;1717;-74
2021/03/17 02:51:09;;;;;;;;;;;;;;;20.01;48.31;101510.28;2089299;28;2096;-73
2021/03/17 02:52:09;;;;;;;;;;;;;;;20.00;48.47;101515.16;2090067;28;1584;-73
2021/03/17 02:53:10;;;;;;;;;;;;;;;20.00;48.41;101514.31;2089866;28;1685;-73
2021/03/17 02:54:11;;;;;;;;;;;;;;;20.01;48.28;101511.16;2090556;28;1910;-73
2021/03/17 02:55:12;;;;;;;;;;;;;;;20.00;48.48;101515.16;2090090;28;1663;-73
2021/03/17 02:56:13;;;;;;;;;;;;;;;19.99;48.44;101513.50;2090335;28;1969;-73
2021/03/17 02:57:13;;;;;;;;;;;;;;;19.99;48.45;101513.50;2091017;28;1699;-73
2021/03/17 02:58:14;;;;;;;;;;;;;;;19.99;48.32;101519.16;2090163;28;1463;-73
2021/03/17 02:59:15;;;;;;;;;;;;;;;20.00;48.37;101517.16;2090182;28;1687;-73
2021/03/17 03:00:16;;;;;;;;;;;;;;;20.00;48.40;101512.31;2090284;28;1733;-73
2021/03/17 03:01:17;;;;;;;;;;;;;;;19.99;48.34;101518.34;2088837;28;1723;-73
2021/03/17 03:02:19;;;;;;;;;;;;;;;19.99;48.30;101516.31;2090203;28;1739;-73
2021/03/17 03:03:20;;;;;;;;;;;;;;;19.99;48.30;101510.66;2090401;28;1257;-73
2021/03/17 03:04:21;;;;;;;;;;;;;;;19.98;48.34;101517.47;2089862;28;1784;-73
2021/03/17 03:05:22;;;;;;;;;;;;;;;19.99;48.24;101521.19;2090496;28;1143;-73
2021/03/17 03:06:23;;;;;;;;;;;;;;;19.99;48.39;101513.50;2091063;28;1725;-73
2021/03/17 03:07:23;;;;;;;;;;;;;;;19.99;48.29;101516.31;2090568;28;1320;-73
2021/03/17 03:08:24;;;;;;;;;;;;;;;19.99;48.37;101513.50;2092245;28;1696;-73
2021/03/17 03:09:25;;;;;;;;;;;;;;;19.99;48.31;101512.66;2091782;28;1139;-73
2021/03/17 03:10:28;;;;;;;;;;;;;;;19.99;48.33;101516.31;2090501;28;1076;-73
2021/03/17 03:11:28;;;;;;;;;;;;;;;20.00;48.38;101514.31;2089989;28;1763;-73
2021/03/17 03:12:29;;;;;;;;;;;;;;;19.98;48.25;101520.31;2088975;28;2065;-73
2021/03/17 03:13:30;;;;;;;;;;;;;;;19.99;48.29;101509.81;2090184;28;1675;-73
2021/03/17 03:14:43;;;;;;;;;;;;;;;19.98;48.40;101520.31;2092069;28;1187;-73
2021/03/17 03:15:44;;;;;;;;;;;;;;;19.99;48.45;101524.84;2090590;28;1702;-73
2021/03/17 03:16:45;;;;;;;;;;;;;;;19.98;48.30;101511.78;2089573;28;2021;-73
2021/03/17 03:17:46;;;;;;;;;;;;;;;19.98;48.31;101516.63;2090366;28;1103;-73
2021/03/17 03:18:47;;;;;;;;;;;;;;;19.98;48.24;101522.31;2092763;28;1715;-73
2021/03/17 03:19:48;;;;;;;;;;;;;;;19.99;48.31;101512.66;2090377;28;1099;-73
2021/03/17 03:20:49;;;;;;;;;;;;;;;19.99;48.35;101524.00;2089121;28;1787;-74
2021/03/17 03:21:50;;;;;;;;;;;;;;;19.98;48.44;101514.63;2089800;28;1660;-73
2021/03/17 03:22:51;;;;;;;;;;;;;;;19.98;48.34;101516.63;2090312;28;1131;-73
2021/03/17 03:23:51;;;;;;;;;;;;;;;19.98;48.35;101513.81;2089816;28;1715;-73
2021/03/17 03:24:52;;;;;;;;;;;;;;;19.97;48.35;101524.34;2090780;28;1785;-73
2021/03/17 03:25:53;;;;;;;;;;;;;;;19.98;48.37;101519.47;2089921;28;1770;-73
2021/03/17 03:26:54;;;;;;;;;;;;;;;19.97;48.34;101520.66;2090307;28;1707;-73
2021/03/17 03:27:55;;;;;;;;;;;;;;;19.98;48.37;101517.47;2090162;28;2001;-73
2021/03/17 03:28:56;;;;;;;;;;;;;;;19.99;48.34;101524.00;2089734;28;1770;-73
2021/03/17 03:29:57;;;;;;;;;;;;;;;19.95;48.34;101512.44;2092183;28;2104;-73
2021/03/17 03:30:57;;;;;;;;;;;;;;;19.98;48.36;101522.31;2090495;28;1207;-73
2021/03/17 03:31:58;;;;;;;;;;;;;;;19.97;48.38;101521.50;2089152;28;1746;-73
2021/03/17 03:32:59;;;;;;;;;;;;;;;19.98;48.44;101525.16;2087888;28;1406;-73
2021/03/17 03:34:00;;;;;;;;;;;;;;;19.96;48.33;101519.81;2089970;28;1914;-73
2021/03/17 03:35:01;;;;;;;;;;;;;;;19.97;48.32;101527.16;2089750;28;1317;-73
2021/03/17 03:36:02;;;;;;;;;;;;;;;19.97;48.37;101527.16;2088170;28;1068;-73
2021/03/17 03:37:02;;;;;;;;;;;;;;;19.96;48.69;101525.50;2089985;28;1691;-74
2021/03/17 03:38:03;;;;;;;;;;;;;;;19.96;48.50;101525.50;2090091;28;1052;-73
2021/03/17 03:39:04;;;;;;;;;;;;;;;19.97;48.42;101526.34;2092478;28;1123;-71
2021/03/17 03:40:05;;;;;;;;;;;;;;;19.98;48.55;101523.16;2090071;28;1772;-72
2021/03/17 03:41:06;;;;;;;;;;;;;;;19.98;48.56;101530.84;2090251;28;1044;-72
2021/03/17 03:42:06;;;;;;;;;;;;;;;19.97;48.45;101530.00;2089699;28;1679;-71
2021/03/17 03:43:07;;;;;;;;;;;;;;;19.97;48.58;101527.16;2094934;28;1182;-72
2021/03/17 03:44:08;;;;;;;;;;;;;;;19.97;48.56;101530.00;2091913;28;1699;-72
2021/03/17 03:45:08;;;;;;;;;;;;;;;19.98;48.38;101534.50;2092527;28;1071;-72
2021/03/17 03:46:09;;;;;;;;;;;;;;;19.96;48.42;101531.19;2089932;28;1761;-72
2021/03/17 03:47:10;;;;;;;;;;;;;;;19.95;48.49;101526.66;2089782;28;2478;-72
2021/03/17 03:48:11;;;;;;;;;;;;;;;19.97;48.56;101526.34;2089495;28;1580;-72
2021/03/17 03:49:12;;;;;;;;;;;;;;;19.96;48.52;101528.34;2089826;28;1376;-73
2021/03/17 03:50:13;;;;;;;;;;;;;;;19.97;48.59;101526.34;2089215;28;1702;-72
2021/03/17 03:51:13;;;;;;;;;;;;;;;19.97;48.44;101534.88;2089924;28;2068;-72
2021/03/17 03:52:14;;;;;;;;;;;;;;;19.97;48.52;101535.69;2087079;28;1687;-72
2021/03/17 03:53:15;;;;;;;;;;;;;;;19.97;48.51;101537.69;2091108;28;1729;-73
2021/03/17 03:54:16;;;;;;;;;;;;;;;19.96;48.51;101531.19;2092972;28;2088;-72
2021/03/17 03:55:16;;;;;;;;;;;;;;;19.97;48.66;101532.84;2093225;28;1810;-72
2021/03/17 03:56:17;;;;;;;;;;;;;;;19.97;48.51;101540.53;2089833;28;1311;-73
2021/03/17 03:57:18;;;;;;;;;;;;;;;19.96;48.66;101534.03;2088693;28;1754;-73
2021/03/17 03:58:19;;;;;;;;;;;;;;;19.97;48.55;101535.69;2090376;28;1131;-73
2021/03/17 03:59:20;;;;;;;;;;;;;;;19.96;48.56;101536.88;2090177;28;1125;-72
2021/03/17 04:00:21;;;;;;;;;;;;;;;19.97;48.62;101537.69;2091828;28;1746;-74
2021/03/17 04:01:22;;;;;;;;;;;;;;;19.96;48.53;101539.72;2092407;28;1178;-74
2021/03/17 04:02:23;;;;;;;;;;;;;;;19.97;48.58;101540.53;2089639;28;1652;-73
2021/03/17 04:03:24;;;;;;;;;;;;;;;19.97;48.52;101549.06;2090284;28;1107;-73
2021/03/17 04:04:24;;;;;;;;;;;;;;;19.97;48.55;101543.38;2093939;28;1134;-72
2021/03/17 04:05:25;;;;;;;;;;;;;;;19.96;48.60;101541.72;2089171;28;1778;-74
2021/03/17 04:06:26;;;;;;;;;;;;;;;19.96;48.72;101538.88;2090331;28;1373;-74
2021/03/17 04:07:27;;;;;;;;;;;;;;;19.97;48.63;101537.69;2089285;28;1698;-74
2021/03/17 04:08:27;;;;;;;;;;;;;;;19.97;48.88;101543.38;2088990;28;2021;-74
2021/03/17 04:09:28;;;;;;;;;;;;;;;19.97;48.77;101538.53;2089766;28;1667;-73
2021/03/17 04:10:29;;;;;;;;;;;;;;;19.96;48.82;101536.88;2091346;28;1707;-73
2021/03/17 04:11:31;;;;;;;;;;;;;;;19.97;48.74;101541.38;2089723;28;1659;-74
2021/03/17 04:12:32;;;;;;;;;;;;;;;19.97;48.82;101547.06;2090064;28;1056;-73
2021/03/17 04:13:33;;;;;;;;;;;;;;;19.98;48.91;101545.03;2095058;28;1775;-73
2021/03/17 04:14:34;;;;;;;;;;;;;;;19.98;49.06;101539.38;2090331;28;1906;-73
2021/03/17 04:15:35;;;;;;;;;;;;;;;19.98;49.07;101545.88;2090473;28;1854;-73
2021/03/17 04:16:36;;;;;;;;;;;;;;;19.99;48.99;101546.75;2089887;28;2089;-73
2021/03/17 04:17:37;;;;;;;;;;;;;;;19.98;48.97;101543.03;2093285;28;1788;-74
2021/03/17 04:18:38;;;;;;;;;;;;;;;19.98;49.08;101540.19;2086425;28;3205;-73
2021/03/17 04:19:38;;;;;;;;;;;;;;;19.98;48.97;101551.56;2095289;28;1060;-74
2021/03/17 04:20:39;;;;;;;;;;;;;;;19.98;49.15;101545.88;2089384;28;1700;-74
2021/03/17 04:21:40;;;;;;;;;;;;;;;19.98;49.10;101545.03;2089774;28;2056;-73
2021/03/17 04:22:41;;;;;;;;;;;;;;;19.99;49.04;101539.03;2096965;28;1059;-73
2021/03/17 04:23:42;;;;;;;;;;;;;;;19.99;49.08;101552.41;2089251;28;1715;-73
2021/03/17 04:24:43;;;;;;;;;;;;;;;19.99;49.23;101549.56;2087718;28;2830;-73
2021/03/17 04:25:44;;;;;;;;;;;;;;;19.98;49.31;101545.88;2090284;28;1605;-73
2021/03/17 04:26:45;;;;;;;;;;;;;;;19.98;49.24;101547.88;2089186;28;1870;-74
2021/03/17 04:27:46;;;;;;;;;;;;;;;19.99;49.23;101547.56;2090180;28;1726;-74
2021/03/17 04:28:47;;;;;;;;;;;;;;;19.98;49.35;101554.41;2090348;28;1718;-73
2021/03/17 04:29:48;;;;;;;;;;;;;;;19.99;49.34;101553.25;2089649;28;1779;-73
2021/03/17 04:30:49;;;;;;;;;;;;;;;19.99;49.34;101550.41;2091052;28;1708;-74
2021/03/17 04:31:50;;;;;;;;;;;;;;;19.98;49.46;101550.72;2090925;28;1453;-74
2021/03/17 04:32:51;;;;;;;;;;;;;;;19.99;49.50;101550.41;2091915;28;1810;-73
2021/03/17 04:33:52;;;;;;;;;;;;;;;19.99;49.33;101553.25;2089343;28;1750;-73
2021/03/17 04:34:52;;;;;;;;;;;;;;;19.99;49.28;101556.09;2090175;28;1946;-73
2021/03/17 04:35:53;;;;;;;;;;;;;;;19.99;49.31;101558.94;2089340;28;1746;-74
2021/03/17 04:36:54;;;;;;;;;;;;;;;19.99;49.35;101558.09;2090273;28;1678;-74
2021/03/17 04:37:55;;;;;;;;;;;;;;;19.99;49.41;101552.41;2089841;28;1188;-73
2021/03/17 04:38:56;;;;;;;;;;;;;;;19.99;49.49;101558.94;2089788;28;1702;-74
2021/03/17 04:39:57;;;;;;;;;;;;;;;19.98;49.63;101554.41;2089926;28;1040;-74
2021/03/17 04:40:57;;;;;;;;;;;;;;;20.00;49.66;101551.25;2089345;28;1695;-73
2021/03/17 04:41:58;;;;;;;;;;;;;;;19.99;49.47;101552.41;2089612;28;2151;-74
2021/03/17 04:42:59;;;;;;;;;;;;;;;19.99;49.65;101553.25;2082844;28;1734;-73
2021/03/17 04:44:00;;;;;;;;;;;;;;;20.00;49.56;101559.75;2088262;28;1306;-73
2021/03/17 04:45:01;;;;;;;;;;;;;;;19.99;49.52;101563.78;2090239;28;1083;-73
2021/03/17 04:46:01;;;;;;;;;;;;;;;19.99;49.63;101558.94;2089968;28;1079;-74
2021/03/17 04:47:03;;;;;;;;;;;;;;;19.99;49.62;101564.59;2088886;28;2447;-73
2021/03/17 04:48:04;;;;;;;;;;;;;;;19.99;49.57;101558.94;2089708;28;1794;-73
2021/03/17 04:49:05;;;;;;;;;;;;;;;19.99;49.52;101552.41;2089896;28;1072;-73
2021/03/17 04:50:06;;;;;;;;;;;;;;;19.98;49.59;101559.25;2090050;28;1076;-73
2021/03/17 04:51:06;;;;;;;;;;;;;;;19.99;49.65;101558.94;2089644;28;1384;-73
2021/03/17 04:52:07;;;;;;;;;;;;;;;19.99;49.64;101561.78;2090068;28;1766;-73
2021/03/17 04:53:08;;;;;;;;;;;;;;;20.00;49.58;101562.59;2091383;28;1202;-72
2021/03/17 04:54:09;;;;;;;;;;;;;;;19.99;49.52;101566.63;2091310;28;1910;-73
2021/03/17 04:55:09;;;;;;;;;;;;;;;19.99;49.54;101567.44;2091442;28;1324;-73
2021/03/17 04:56:10;;;;;;;;;;;;;;;19.98;49.51;101564.91;2091111;28;2130;-73
2021/03/17 04:57:11;;;;;;;;;;;;;;;19.98;49.50;101568.59;2090906;28;1667;-73
2021/03/17 04:58:12;;;;;;;;;;;;;;;19.98;49.54;101562.91;2090927;28;1742;-73
2021/03/17 04:59:12;;;;;;;;;;;;;;;19.99;49.50;101572.31;2091173;28;1745;-72
2021/03/17 05:00:13;;;;;;;;;;;;;;;19.98;49.53;101571.44;2091300;28;1083;-73
2021/03/17 05:01:14;;;;;;;;;;;;;;;19.98;49.49;101567.75;2091034;28;1726;-73
2021/03/17 05:02:15;;;;;;;;;;;;;;;19.98;49.43;101579.97;2090748;28;1956;-73
2021/03/17 05:03:16;;;;;;;;;;;;;;;19.97;49.41;101575.44;2090925;28;1671;-73
2021/03/17 05:04:17;;;;;;;;;;;;;;;19.97;49.48;101574.63;2091186;28;1675;-73
2021/03/17 05:05:18;;;;;;;;;;;;;;;19.97;49.36;101572.63;2091677;28;1186;-72
2021/03/17 05:06:19;;;;;;;;;;;;;;;19.97;49.37;101575.44;2091276;28;1104;-72
2021/03/17 05:07:20;;;;;;;;;;;;;;;19.97;49.39;101586.81;2091581;28;2017;-72
2021/03/17 05:08:21;;;;;;;;;;;;;;;19.96;49.35;101582.31;2090720;28;1876;-72
2021/03/17 05:09:22;;;;;;;;;;;;;;;19.97;49.35;101586.81;2091393;28;1754;-72
2021/03/17 05:10:23;;;;;;;;;;;;;;;19.97;49.28;101578.28;2091081;28;1151;-73
2021/03/17 05:11:23;;;;;;;;;;;;;;;19.96;49.41;101585.16;2091141;28;1340;-72
2021/03/17 05:12:24;;;;;;;;;;;;;;;19.97;49.44;101581.13;2090507;28;1765;-72
2021/03/17 05:13:25;;;;;;;;;;;;;;;19.96;49.40;101579.47;2090839;28;2100;-72
2021/03/17 05:14:25;;;;;;;;;;;;;;;19.97;49.46;101583.97;2091029;28;1967;-72
2021/03/17 05:15:26;;;;;;;;;;;;;;;19.97;49.41;101577.47;2091347;28;1132;-73
2021/03/17 05:16:32;;;;;;;;;;;;;;;19.97;49.50;101589.66;2091316;28;1103;-73
2021/03/17 05:17:33;;;;;;;;;;;;;;;19.97;49.58;101585.97;2090876;28;1699;-73